Terminal Aerodrome Forecast
Issued by NWS

Home | Current Version | Previous Version | Text Only | Print | Product List | Glossary On
Versions: 1 2 3 4 5 6 7 8 9 10 11 12 13 14 15 16
000
FTUS44 KTSA 281700
TAFFYV
TAF
KFYV 281722Z 2818/2918 00000KT P6SM -SHRA FEW019 SCT040 OVC110
      TEMPO 2818/2822 3SM TSRA BR OVC015CB
     FM282200 17007KT P6SM VCTS BKN040CB
     FM290100 18007KT P6SM SCT050 OVC100
     FM291200 18004KT P6SM VCTS BKN050CB=

USA.gov is the U.S. government's official web portal to all federal, state and local government web resources and services.